Time;durP1;ratioP1;P1;durP2;ratioP2;P2;SDS_P1;SDS_P2;PMS_P1;PMS_P2;Temp;Humidity;BMP_temperature;BMP_pressure;BME280_temperature;BME280_humidity;BME280_pressure;Samples;Min_cycle;Max_cycle;Signal;HPM_P1;HPM_P2
2023/01/11 00:01:08;;;;;;;;;;;;;;;2.85;100.00;97050.69;5019423;28;19967;-67
2023/01/11 00:03:34;;;;;;;;;;;;;;;2.99;100.00;97040.59;5043109;28;19917;-69
2023/01/11 00:05:59;;;;;;;;;;;;;;;2.89;100.00;97040.84;5042207;28;20031;-67
2023/01/11 00:08:26;;;;;;;;;;;;;;;2.93;100.00;97049.94;5037396;28;20014;-67
2023/01/11 00:10:51;;;;;;;;;;;;;;;3.06;100.00;97037.44;5043535;28;19952;-67
2023/01/11 00:13:16;;;;;;;;;;;;;;;3.11;100.00;97050.84;5019362;28;20428;-68
2023/01/11 00:15:41;;;;;;;;;;;;;;;3.19;100.00;97046.59;5041944;28;19960;-68
2023/01/11 00:18:07;;;;;;;;;;;;;;;3.23;100.00;97050.28;5036901;28;19921;-68
2023/01/11 00:20:33;;;;;;;;;;;;;;;3.27;100.00;97039.63;5042213;28;19916;-68
2023/01/11 00:22:58;;;;;;;;;;;;;;;3.27;100.00;97039.63;5042246;28;19948;-68
2023/01/11 00:25:23;;;;;;;;;;;;;;;3.24;100.00;97041.84;5038365;28;19964;-67
2023/01/11 00:27:49;;;;;;;;;;;;;;;3.23;100.00;97042.16;5041134;28;19920;-69
2023/01/11 00:30:15;;;;;;;;;;;;;;;3.31;100.00;97044.09;5036890;28;19921;-69
2023/01/11 00:32:40;;;;;;;;;;;;;;;3.34;100.00;97045.41;5043263;28;19921;-68
2023/01/11 00:35:06;;;;;;;;;;;;;;;3.46;100.00;97040.22;5037353;28;19956;-67
2023/01/11 00:37:31;;;;;;;;;;;;;;;3.50;100.00;97041.16;5042069;28;19927;-69
2023/01/11 00:39:56;;;;;;;;;;;;;;;3.55;100.00;97037.53;5042564;28;20288;-69
2023/01/11 00:48:04;;;;;;;;;;;;;;;3.43;100.00;97038.13;5058995;28;19976;-69
2023/01/11 00:50:30;;;;;;;;;;;;;;;3.52;100.00;97036.25;5033437;28;20408;-69
2023/01/11 00:52:56;;;;;;;;;;;;;;;3.50;100.00;97027.63;5024558;28;19979;-69
2023/01/11 00:55:22;;;;;;;;;;;;;;;3.38;100.00;97033.63;5037458;28;19935;-68
2023/01/11 00:57:47;;;;;;;;;;;;;;;3.33;100.00;97032.97;5042153;28;19921;-68
2023/01/11 01:00:13;;;;;;;;;;;;;;;3.38;100.00;97033.63;5026909;28;19944;-67
2023/01/11 01:02:38;;;;;;;;;;;;;;;3.43;100.00;97025.38;5052834;28;20344;-68
2023/01/11 01:05:04;;;;;;;;;;;;;;;3.36;100.00;97033.13;5044805;28;19920;-66
2023/01/11 01:07:29;;;;;;;;;;;;;;;3.48;100.00;97040.69;5046630;28;20321;-68
2023/01/11 01:09:54;;;;;;;;;;;;;;;3.67;100.00;97031.50;5044535;28;19917;-68
2023/01/11 01:15:04;;;;;;;;;;;;;;;3.56;100.00;97034.50;5056457;28;19936;-66
2023/01/11 01:17:29;;;;;;;;;;;;;;;3.54;100.00;97035.94;5041259;28;19927;-67
2023/01/11 01:19:54;;;;;;;;;;;;;;;3.54;100.00;97031.31;5043001;28;20067;-68
2023/01/11 01:22:20;;;;;;;;;;;;;;;3.54;100.00;97034.00;5038102;28;20255;-68
2023/01/11 01:24:45;;;;;;;;;;;;;;;3.94;99.65;97035.91;5049139;28;19924;-68
2023/01/11 01:27:15;;;;;;;;;;;;;;;3.94;98.27;97027.75;5024342;28;19940;-68
2023/01/11 01:29:40;;;;;;;;;;;;;;;3.90;98.92;97021.38;5049002;28;19947;-68
2023/01/11 01:32:06;;;;;;;;;;;;;;;3.85;100.00;97027.75;5053940;28;19916;-66
2023/01/11 01:34:31;;;;;;;;;;;;;;;3.89;100.00;97023.31;5059026;28;19916;-69
2023/01/11 01:36:56;;;;;;;;;;;;;;;3.90;100.00;97030.31;5052997;28;19928;-69
2023/01/11 01:39:21;;;;;;;;;;;;;;;3.94;100.00;97025.06;5037086;28;20330;-69
2023/01/11 01:41:47;;;;;;;;;;;;;;;4.01;100.00;97025.38;5041800;28;19917;-69
2023/01/11 01:44:31;;;;;;;;;;;;;;;4.05;100.00;97026.34;5037119;28;19917;-69
2023/01/11 01:46:56;;;;;;;;;;;;;;;3.93;100.00;97018.06;5041267;28;20332;-68
2023/01/11 01:49:21;;;;;;;;;;;;;;;3.44;100.00;97010.72;5018016;28;19925;-69
2023/01/11 01:51:50;;;;;;;;;;;;;;;3.27;100.00;97005.22;5040415;28;19917;-69
2023/01/11 01:54:18;;;;;;;;;;;;;;;3.14;100.00;97015.03;5036117;28;19967;-69
2023/01/11 01:56:49;;;;;;;;;;;;;;;2.98;100.00;97014.63;5041330;28;19923;-69
2023/01/11 01:59:16;;;;;;;;;;;;;;;3.02;100.00;97015.59;5036729;28;19928;-68
2023/01/11 02:01:48;;;;;;;;;;;;;;;3.03;100.00;97003.69;5041310;28;19963;-70
2023/01/11 02:04:16;;;;;;;;;;;;;;;3.03;100.00;97000.19;5018629;28;20401;-69
2023/01/11 02:06:42;;;;;;;;;;;;;;;3.12;100.00;97003.72;5041722;28;19944;-70
2023/01/11 02:09:16;;;;;;;;;;;;;;;3.20;100.00;96997.53;5041267;28;20404;-69
2023/01/11 02:11:42;;;;;;;;;;;;;;;3.21;100.00;96993.75;5044974;28;19917;-69
2023/01/11 02:14:11;;;;;;;;;;;;;;;3.28;100.00;96990.59;5021147;28;20293;-68
2023/01/11 02:16:37;;;;;;;;;;;;;;;3.31;98.39;96998.06;5044093;28;19920;-70
2023/01/11 02:19:03;;;;;;;;;;;;;;;3.30;97.38;96988.38;5044768;28;20453;-67
2023/01/11 02:21:31;;;;;;;;;;;;;;;3.40;99.21;96988.09;5043419;28;19923;-69
2023/01/11 02:24:00;;;;;;;;;;;;;;;3.44;98.52;96993.69;5045022;28;19924;-69
2023/01/11 02:26:44;;;;;;;;;;;;;;;3.49;99.20;96981.91;5047620;28;20780;-70
2023/01/11 02:29:09;;;;;;;;;;;;;;;3.53;100.00;96985.56;5030829;28;19956;-68
2023/01/11 02:31:37;;;;;;;;;;;;;;;3.42;98.81;96985.06;5044933;28;19968;-69
2023/01/11 02:34:05;;;;;;;;;;;;;;;3.40;97.83;96990.00;5041115;28;20373;-64
2023/01/11 02:36:34;;;;;;;;;;;;;;;3.41;98.71;96978.06;5044799;28;19924;-68
2023/01/11 02:39:02;;;;;;;;;;;;;;;3.36;99.86;96975.50;5043693;28;19975;-69
2023/01/11 02:45:00;;;;;;;;;;;;;;;3.29;100.00;96973.22;5040675;28;20337;-69
2023/01/11 02:47:11;;;;;;;;;;;;;;;3.02;100.00;96964.19;5039824;28;20277;-70
2023/01/11 02:49:40;;;;;;;;;;;;;;;3.04;100.00;96955.75;5044293;28;19928;-68
2023/01/11 02:52:13;;;;;;;;;;;;;;;3.02;100.00;96952.56;5040004;28;19995;-68
2023/01/11 02:54:41;;;;;;;;;;;;;;;2.98;100.00;96943.47;5043708;28;19917;-69
2023/01/11 02:57:08;;;;;;;;;;;;;;;3.06;100.00;96940.81;5038858;28;20273;-69
2023/01/11 02:59:34;;;;;;;;;;;;;;;3.03;100.00;96940.66;5044022;28;20337;-69
2023/01/11 03:01:59;;;;;;;;;;;;;;;2.98;100.00;96941.56;5044354;28;19963;-68
2023/01/11 03:04:29;;;;;;;;;;;;;;;3.04;100.00;96943.03;5039522;28;20596;-69
2023/01/11 03:07:03;;;;;;;;;;;;;;;3.18;100.00;96939.44;5026379;28;20392;-68
2023/01/11 03:09:41;;;;;;;;;;;;;;;3.33;100.00;96930.91;5024243;28;19971;-69
2023/01/11 03:14:59;;;;;;;;;;;;;;;3.55;100.00;96912.97;5042988;28;20030;-67
2023/01/11 03:17:24;;;;;;;;;;;;;;;3.51;100.00;96925.50;5040495;28;20813;-68
2023/01/11 03:19:54;;;;;;;;;;;;;;;3.60;100.00;96921.72;5023444;28;19963;-69
2023/01/11 03:22:19;;;;;;;;;;;;;;;3.66;100.00;96908.81;5037937;28;19916;-69
2023/01/11 03:24:51;;;;;;;;;;;;;;;3.72;100.00;96907.53;5044302;28;19917;-68
2023/01/11 03:27:20;;;;;;;;;;;;;;;3.46;100.00;96888.56;5030261;28;19932;-69
2023/01/11 03:29:51;;;;;;;;;;;;;;;3.38;100.00;96889.31;5059255;28;19979;-69
2023/01/11 03:32:16;;;;;;;;;;;;;;;3.24;100.00;96903.78;5051185;28;19927;-69
2023/01/11 03:34:47;;;;;;;;;;;;;;;3.22;100.00;96887.06;5071126;28;20397;-68
2023/01/11 03:37:20;;;;;;;;;;;;;;;3.19;100.00;96892.31;5061475;28;20066;-69
2023/01/11 03:39:55;;;;;;;;;;;;;;;3.19;100.00;96898.53;5053423;28;19974;-68
2023/01/11 03:42:22;;;;;;;;;;;;;;;3.22;100.00;96892.50;5057233;28;19924;-69
2023/01/11 03:44:51;;;;;;;;;;;;;;;3.32;100.00;96896.00;5062312;28;19916;-69
2023/01/11 03:47:18;;;;;;;;;;;;;;;3.42;100.00;96895.69;5057096;28;20385;-69
2023/01/11 03:49:50;;;;;;;;;;;;;;;3.22;100.00;96887.06;5044400;28;19920;-68
2023/01/11 03:52:18;;;;;;;;;;;;;;;3.16;100.00;96892.94;5052567;28;20016;-67
2023/01/11 03:54:44;;;;;;;;;;;;;;;3.18;100.00;96886.09;5062311;28;19916;-69
2023/01/11 03:57:15;;;;;;;;;;;;;;;3.17;100.00;96878.28;5054412;28;20403;-69
2023/01/11 03:59:41;;;;;;;;;;;;;;;3.18;100.00;96875.25;5063173;28;20308;-69
2023/01/11 04:02:20;;;;;;;;;;;;;;;3.08;100.00;96877.44;5056675;28;19920;-68
2023/01/11 04:04:45;;;;;;;;;;;;;;;2.97;100.00;96880.47;5061962;28;20173;-70
2023/01/11 04:07:11;;;;;;;;;;;;;;;2.84;100.00;96878.63;5054695;28;19921;-69
2023/01/11 04:09:36;;;;;;;;;;;;;;;2.33;100.00;96872.66;5072851;28;19947;-67
2023/01/11 04:12:01;;;;;;;;;;;;;;;1.95;100.00;96877.66;5081338;28;19999;-68
2023/01/11 04:14:29;;;;;;;;;;;;;;;1.85;100.00;96868.66;5060542;28;31219;-70
2023/01/11 04:16:54;;;;;;;;;;;;;;;1.88;100.00;96872.66;5062150;28;19967;-68
2023/01/11 04:19:20;;;;;;;;;;;;;;;1.85;100.00;96857.84;5057228;28;20015;-68
2023/01/11 04:21:45;;;;;;;;;;;;;;;1.94;100.00;96857.13;5062683;28;20732;-68
2023/01/11 04:24:12;;;;;;;;;;;;;;;2.01;100.00;96857.50;5056580;28;20420;-68
2023/01/11 04:26:37;;;;;;;;;;;;;;;2.00;100.00;96855.88;5059763;28;19927;-70
2023/01/11 04:29:03;;;;;;;;;;;;;;;1.87;100.00;96847.56;5041469;28;19916;-67
2023/01/11 04:31:28;;;;;;;;;;;;;;;1.80;100.00;96846.38;5023856;28;20281;-68
2023/01/11 04:33:53;;;;;;;;;;;;;;;1.79;100.00;96850.19;5043095;28;19923;-70
2023/01/11 04:36:19;;;;;;;;;;;;;;;1.69;100.00;96849.31;5039185;28;19917;-68
2023/01/11 04:38:44;;;;;;;;;;;;;;;1.59;100.00;96846.06;5030820;28;20365;-69
2023/01/11 04:43:54;;;;;;;;;;;;;;;1.52;100.00;96849.16;5042646;28;19956;-67
2023/01/11 04:46:20;;;;;;;;;;;;;;;1.58;100.00;96857.94;5018832;28;19917;-67
2023/01/11 04:48:45;;;;;;;;;;;;;;;1.57;100.00;96862.56;5041553;28;19928;-68
2023/01/11 04:51:10;;;;;;;;;;;;;;;1.54;100.00;96863.16;5037111;28;19917;-70
2023/01/11 04:53:36;;;;;;;;;;;;;;;1.51;100.00;96859.19;5024555;28;19971;-70
2023/01/11 04:56:02;;;;;;;;;;;;;;;1.52;100.00;96857.25;5022954;28;20290;-70
2023/01/11 04:58:28;;;;;;;;;;;;;;;1.49;100.00;96852.47;5039115;28;20519;-68
2023/01/11 05:00:53;;;;;;;;;;;;;;;1.49;100.00;96850.56;5041913;28;19932;-67
2023/01/11 05:03:19;;;;;;;;;;;;;;;1.51;100.00;96853.78;5037382;28;19917;-69
2023/01/11 05:05:44;;;;;;;;;;;;;;;1.50;100.00;96852.16;5041343;28;19921;-70
2023/01/11 05:08:09;;;;;;;;;;;;;;;1.48;100.00;96848.97;5037783;28;19960;-70
2023/01/11 05:10:34;;;;;;;;;;;;;;;1.46;100.00;96850.38;5042910;28;19917;-70
2023/01/11 05:13:00;;;;;;;;;;;;;;;1.47;100.00;96846.56;5023840;28;20377;-69
2023/01/11 05:15:25;;;;;;;;;;;;;;;1.39;100.00;96841.88;5034338;28;19921;-70
2023/01/11 05:17:50;;;;;;;;;;;;;;;1.42;100.00;96857.47;5043527;28;19967;-69
2023/01/11 05:20:15;;;;;;;;;;;;;;;1.47;100.00;96841.97;5036905;28;20378;-69
2023/01/11 05:22:41;;;;;;;;;;;;;;;1.57;100.00;96843.66;5042274;28;19964;-69
2023/01/11 05:25:06;;;;;;;;;;;;;;;1.53;100.00;96853.44;5036050;28;20423;-70
2023/01/11 05:27:31;;;;;;;;;;;;;;;1.39;100.00;96853.50;5048855;28;19920;-69
2023/01/11 05:29:57;;;;;;;;;;;;;;;1.40;100.00;96844.28;5047514;28;19971;-67
2023/01/11 05:32:22;;;;;;;;;;;;;;;1.47;100.00;96843.88;5036637;28;19925;-71
2023/01/11 05:34:47;;;;;;;;;;;;;;;1.58;100.00;96836.34;5041430;28;19939;-70
2023/01/11 05:37:12;;;;;;;;;;;;;;;1.62;100.00;96838.16;5034900;28;20023;-71
2023/01/11 05:39:38;;;;;;;;;;;;;;;1.75;100.00;96833.81;5036241;28;20377;-71
2023/01/11 05:42:03;;;;;;;;;;;;;;;1.81;100.00;96827.16;5055295;28;19916;-67
2023/01/11 05:47:12;;;;;;;;;;;;;;;1.96;100.00;96825.19;5039593;28;19928;-71
2023/01/11 05:49:38;;;;;;;;;;;;;;;1.99;100.00;96832.69;5046064;28;19917;-69
2023/01/11 05:52:03;;;;;;;;;;;;;;;2.07;100.00;96837.34;5041582;28;19917;-68
2023/01/11 05:54:29;;;;;;;;;;;;;;;2.21;100.00;96829.16;5045797;28;19917;-70
2023/01/11 05:56:55;;;;;;;;;;;;;;;2.25;100.00;96832.84;5049111;28;19917;-70
2023/01/11 05:59:20;;;;;;;;;;;;;;;2.08;100.00;96820.03;5049011;28;19921;-71
2023/01/11 06:01:45;;;;;;;;;;;;;;;1.98;100.00;96828.38;5052654;28;19921;-71
2023/01/11 06:04:11;;;;;;;;;;;;;;;1.99;100.00;96824.59;5046432;28;19921;-71
2023/01/11 06:06:36;;;;;;;;;;;;;;;1.78;100.00;96822.38;5032317;28;19927;-70
2023/01/11 06:09:02;;;;;;;;;;;;;;;1.65;100.00;96821.31;5044634;28;20023;-67
2023/01/11 06:11:27;;;;;;;;;;;;;;;1.71;100.00;96822.00;5053591;28;19943;-69
2023/01/11 06:13:54;;;;;;;;;;;;;;;1.74;100.00;96821.38;5063673;28;19917;-69
2023/01/11 06:16:20;;;;;;;;;;;;;;;1.80;100.00;96824.75;5058121;28;19999;-70
2023/01/11 06:18:49;;;;;;;;;;;;;;;1.92;100.00;96828.50;5053423;28;20012;-69
2023/01/11 06:21:16;;;;;;;;;;;;;;;2.02;100.00;96835.59;5021912;28;19918;-68
2023/01/11 06:23:43;;;;;;;;;;;;;;;2.11;100.00;96832.94;5042494;28;19923;-68
2023/01/11 06:26:09;;;;;;;;;;;;;;;2.19;100.00;96837.59;5039207;28;20016;-69
2023/01/11 06:28:35;;;;;;;;;;;;;;;2.23;100.00;96830.47;5051310;28;19916;-69
2023/01/11 06:31:01;;;;;;;;;;;;;;;2.31;100.00;96834.31;5056704;28;19923;-69
2023/01/11 06:33:27;;;;;;;;;;;;;;;2.44;100.00;96832.66;5060209;28;20274;-68
2023/01/11 06:35:53;;;;;;;;;;;;;;;2.52;100.00;96823.78;5064058;28;19970;-70
2023/01/11 06:38:19;;;;;;;;;;;;;;;2.61;100.00;96815.69;5045713;28;19929;-68
2023/01/11 06:40:50;;;;;;;;;;;;;;;2.68;100.00;96808.75;5043911;28;20325;-70
2023/01/11 06:43:16;;;;;;;;;;;;;;;2.79;100.00;96809.25;5038776;28;19971;-69
2023/01/11 06:45:42;;;;;;;;;;;;;;;2.85;100.00;96812.63;5027027;28;19917;-69
2023/01/11 06:48:07;;;;;;;;;;;;;;;2.75;100.00;96810.97;5043353;28;20549;-69
2023/01/11 06:50:33;;;;;;;;;;;;;;;2.69;100.00;96823.06;5064653;28;19931;-69
2023/01/11 06:53:00;;;;;;;;;;;;;;;2.74;100.00;96824.81;5047590;28;19927;-68
2023/01/11 06:55:26;;;;;;;;;;;;;;;2.87;100.00;96822.00;5038336;28;20010;-69
2023/01/11 06:57:52;;;;;;;;;;;;;;;2.99;100.00;96818.72;5044859;28;19991;-69
2023/01/11 07:00:18;;;;;;;;;;;;;;;3.13;100.00;96823.19;5039404;28;20393;-70
2023/01/11 07:02:44;;;;;;;;;;;;;;;3.30;100.00;96825.94;5027470;28;19963;-70
2023/01/11 07:05:09;;;;;;;;;;;;;;;3.33;100.00;96829.91;5039975;28;19921;-68
2023/01/11 07:07:34;;;;;;;;;;;;;;;3.30;100.00;96831.34;5044296;28;19921;-70
2023/01/11 07:10:00;;;;;;;;;;;;;;;3.33;100.00;96819.91;5045578;28;19921;-68
2023/01/11 07:12:29;;;;;;;;;;;;;;;3.04;100.00;96823.97;4998026;28;19917;-68
2023/01/11 07:14:54;;;;;;;;;;;;;;;2.72;100.00;96811.63;5044977;28;20035;-68
2023/01/11 07:17:19;;;;;;;;;;;;;;;2.67;99.66;96817.16;5022441;28;19936;-69
2023/01/11 07:19:45;;;;;;;;;;;;;;;2.72;100.00;96818.91;5027273;28;20376;-68
2023/01/11 07:22:10;;;;;;;;;;;;;;;2.79;100.00;96811.97;5040412;28;19940;-69
2023/01/11 07:24:35;;;;;;;;;;;;;;;2.89;100.00;96813.56;5044030;28;19932;-69
2023/01/11 07:27:01;;;;;;;;;;;;;;;2.96;100.00;96813.13;5043490;28;20003;-69
2023/01/11 07:29:27;;;;;;;;;;;;;;;3.21;100.00;96817.00;5039418;28;19924;-69
2023/01/11 07:31:52;;;;;;;;;;;;;;;3.23;100.00;96820.97;5056333;28;19917;-70
2023/01/11 07:34:17;;;;;;;;;;;;;;;3.26;100.00;96816.84;5077592;28;19917;-69
2023/01/11 07:36:43;;;;;;;;;;;;;;;3.18;100.00;96812.22;5051584;28;19916;-71
2023/01/11 07:39:08;;;;;;;;;;;;;;;3.23;100.00;96818.28;5022365;28;20294;-69
2023/01/11 07:44:17;;;;;;;;;;;;;;;3.15;96.92;96807.44;5021272;28;20369;-69
2023/01/11 07:46:43;;;;;;;;;;;;;;;3.09;97.67;96784.34;5044489;28;19959;-69
2023/01/11 07:49:08;;;;;;;;;;;;;;;3.21;97.92;96808.88;5039081;28;20007;-68
2023/01/11 07:51:33;;;;;;;;;;;;;;;3.23;100.00;96796.63;5043011;28;20357;-70
2023/01/11 07:54:01;;;;;;;;;;;;;;;3.18;96.96;96794.06;5043012;28;19924;-69
2023/01/11 07:56:27;;;;;;;;;;;;;;;3.35;98.00;96796.00;5054807;28;19923;-69
2023/01/11 07:58:52;;;;;;;;;;;;;;;3.38;96.15;96803.47;5076535;28;19940;-69
2023/01/11 08:01:17;;;;;;;;;;;;;;;3.56;97.03;96798.06;5037448;28;19974;-70
2023/01/11 08:03:42;;;;;;;;;;;;;;;3.74;97.59;96798.88;5042865;28;19920;-67
2023/01/11 08:06:08;;;;;;;;;;;;;;;3.72;92.87;96801.09;5037898;28;19935;-69
2023/01/11 08:08:33;;;;;;;;;;;;;;;3.61;94.09;96789.78;5026265;28;19972;-69
2023/01/11 08:16:26;;;;;;;;;;;;;;;3.94;93.84;96786.56;5037573;28;19996;-69
2023/01/11 08:18:54;;;;;;;;;;;;;;;4.37;95.09;96794.59;5043535;28;19921;-69
2023/01/11 08:21:20;;;;;;;;;;;;;;;4.77;88.02;96788.06;5038463;28;19921;-69
2023/01/11 08:23:45;;;;;;;;;;;;;;;4.96;84.69;96777.59;5053307;28;19936;-68
2023/01/11 08:26:15;;;;;;;;;;;;;;;5.04;84.59;96773.28;5054029;28;19917;-68
2023/01/11 08:28:41;;;;;;;;;;;;;;;5.22;85.06;96778.56;5054260;28;19926;-69
2023/01/11 08:31:07;;;;;;;;;;;;;;;5.40;86.05;96776.53;5053864;28;20003;-69
2023/01/11 08:33:32;;;;;;;;;;;;;;;5.55;83.61;96771.31;5058931;28;19960;-69
2023/01/11 08:36:02;;;;;;;;;;;;;;;5.67;84.82;96773.31;5063907;28;19917;-69
2023/01/11 08:38:28;;;;;;;;;;;;;;;5.81;83.37;96777.66;5056928;28;19921;-69
2023/01/11 08:40:53;;;;;;;;;;;;;;;5.87;82.79;96789.91;5043373;28;19924;-69
2023/01/11 08:43:18;;;;;;;;;;;;;;;6.00;81.33;96799.72;5038707;28;19917;-68
2023/01/11 08:45:43;;;;;;;;;;;;;;;6.41;80.88;96792.59;5024199;28;19951;-69
2023/01/11 08:48:10;;;;;;;;;;;;;;;6.64;80.07;96800.34;5038001;28;20266;-69
2023/01/11 08:50:36;;;;;;;;;;;;;;;6.66;79.00;96801.59;5042234;28;19925;-69
2023/01/11 08:53:01;;;;;;;;;;;;;;;6.45;80.03;96807.13;5025403;28;19939;-68
2023/01/11 08:55:26;;;;;;;;;;;;;;;6.34;78.06;96813.31;5037551;28;19917;-69
2023/01/11 08:57:51;;;;;;;;;;;;;;;6.32;79.40;96814.47;5043229;28;20397;-69
2023/01/11 09:00:17;;;;;;;;;;;;;;;6.45;79.08;96809.84;5045456;28;19923;-69
2023/01/11 09:02:44;;;;;;;;;;;;;;;6.53;78.51;96812.81;5062921;28;20296;-69
2023/01/11 09:05:09;;;;;;;;;;;;;;;6.44;78.20;96821.06;5037732;28;20015;-69
2023/01/11 09:07:36;;;;;;;;;;;;;;;6.48;77.88;96809.19;5053854;28;19982;-69
2023/01/11 09:10:01;;;;;;;;;;;;;;;6.55;78.75;96811.31;5062325;28;19917;-69
2023/01/11 09:12:27;;;;;;;;;;;;;;;6.66;78.45;96809.78;5050048;28;19923;-68
2023/01/11 09:14:52;;;;;;;;;;;;;;;6.85;77.45;96816.59;5053388;28;20416;-69
2023/01/11 09:17:17;;;;;;;;;;;;;;;7.05;77.03;96806.72;5059134;28;20026;-68
2023/01/11 09:19:43;;;;;;;;;;;;;;;6.85;75.79;96819.31;5048130;28;20058;-69
2023/01/11 09:22:08;;;;;;;;;;;;;;;6.69;78.04;96811.81;5061128;28;20316;-69
2023/01/11 09:24:33;;;;;;;;;;;;;;;6.61;78.92;96815.44;5065964;28;19916;-69
2023/01/11 09:26:59;;;;;;;;;;;;;;;6.43;79.77;96819.47;5066203;28;19917;-69
2023/01/11 09:29:24;;;;;;;;;;;;;;;5.99;81.38;96819.09;5060070;28;20357;-69
2023/01/11 09:31:50;;;;;;;;;;;;;;;5.86;82.12;96816.28;5046156;28;20404;-69
2023/01/11 09:34:15;;;;;;;;;;;;;;;6.15;82.52;96825.50;5040850;28;20008;-72
2023/01/11 09:36:40;;;;;;;;;;;;;;;6.07;82.68;96820.94;5045732;28;19917;-69
2023/01/11 09:39:09;;;;;;;;;;;;;;;6.32;82.05;96816.41;5042016;28;20374;-67
2023/01/11 09:42:05;;;;;;;;;;;;;;;6.04;82.61;96813.47;5046625;28;19939;-68
2023/01/11 09:44:31;;;;;;;;;;;;;;;5.88;85.48;96822.19;5028091;28;20332;-69
2023/01/11 09:47:09;;;;;;;;;;;;;;;6.11;85.52;96817.22;5045894;28;19916;-69
2023/01/11 09:49:41;;;;;;;;;;;;;;;6.07;85.32;96820.94;5027978;28;20027;-68
2023/01/11 09:52:22;;;;;;;;;;;;;;;6.32;85.22;96810.94;5040574;28;20431;-68
2023/01/11 09:54:48;;;;;;;;;;;;;;;6.35;83.59;96812.97;5046434;28;19916;-69
2023/01/11 09:57:40;;;;;;;;;;;;;;;6.29;84.99;96809.69;5048774;28;19932;-67
2023/01/11 10:00:24;;;;;;;;;;;;;;;5.67;88.12;96807.81;5045786;28;20010;-66
2023/01/11 10:02:58;;;;;;;;;;;;;;;5.54;90.82;96810.44;5045866;28;20293;-68
2023/01/11 10:05:28;;;;;;;;;;;;;;;5.44;91.62;96797.28;5039669;28;20114;-68
2023/01/11 10:08:16;;;;;;;;;;;;;;;5.49;91.41;96799.00;5012290;28;19921;-69
2023/01/11 10:10:53;;;;;;;;;;;;;;;5.55;92.08;96795.75;5005634;28;19924;-69
2023/01/11 10:13:29;;;;;;;;;;;;;;;5.82;91.81;96784.69;5041709;28;20408;-69
2023/01/11 10:15:56;;;;;;;;;;;;;;;6.07;88.26;96791.03;5062993;28;20010;-70
2023/01/11 10:19:00;;;;;;;;;;;;;;;6.45;84.74;96779.13;5059973;28;19929;-67
2023/01/11 10:21:30;;;;;;;;;;;;;;;6.39;84.35;96775.00;4978211;28;19922;-68
2023/01/11 10:24:25;;;;;;;;;;;;;;;6.39;85.15;96775.84;5052307;28;19920;-69
2023/01/11 10:26:55;;;;;;;;;;;;;;;6.54;82.92;96774.38;5051371;28;20400;-69
2023/01/11 10:32:33;;;;;;;;;;;;;;;6.46;84.66;96773.34;4985067;28;20326;-68
2023/01/11 10:35:23;;;;;;;;;;;;;;;6.67;84.98;96773.25;5044711;28;19936;-68
2023/01/11 10:38:57;;;;;;;;;;;;;;;6.85;82.25;96756.69;5043345;28;19975;-68
2023/01/11 10:41:09;;;;;;;;;;;;;;;7.61;77.37;96752.34;5008455;28;20003;-69
2023/01/11 10:43:39;;;;;;;;;;;;;;;7.76;77.51;96752.75;5044885;28;19920;-69
2023/01/11 10:46:11;;;;;;;;;;;;;;;8.06;77.38;96761.38;5041248;28;20003;-67
2023/01/11 10:48:40;;;;;;;;;;;;;;;8.13;75.63;96747.94;5049079;28;19944;-69
2023/01/11 10:51:26;;;;;;;;;;;;;;;8.01;76.06;96748.00;5034845;28;20308;-69
2023/01/11 10:54:12;;;;;;;;;;;;;;;8.30;74.84;96741.38;5054639;28;19940;-68
2023/01/11 10:56:53;;;;;;;;;;;;;;;8.34;75.90;96746.91;5036552;28;19921;-69
2023/01/11 10:59:21;;;;;;;;;;;;;;;8.50;74.48;96755.94;5062082;28;19919;-68
2023/01/11 11:01:58;;;;;;;;;;;;;;;8.33;76.71;96751.56;5061722;28;19950;-69
2023/01/11 11:04:36;;;;;;;;;;;;;;;8.32;76.69;96754.63;5056045;28;20371;-68
2023/01/11 11:07:06;;;;;;;;;;;;;;;8.21;78.38;96747.00;5047476;28;20527;-69
2023/01/11 11:09:31;;;;;;;;;;;;;;;8.21;77.48;96747.00;5048215;28;19932;-68
2023/01/11 11:11:59;;;;;;;;;;;;;;;8.11;77.74;96750.22;5053644;28;19916;-69
2023/01/11 11:14:24;;;;;;;;;;;;;;;7.75;78.77;96757.44;5052011;28;20395;-71
2023/01/11 11:16:59;;;;;;;;;;;;;;;7.84;77.51;96754.56;5056419;28;19917;-69
2023/01/11 11:19:29;;;;;;;;;;;;;;;7.53;77.93;96745.13;5040190;28;19917;-68
2023/01/11 11:21:54;;;;;;;;;;;;;;;7.21;79.71;96749.63;5028744;28;20266;-68
2023/01/11 11:24:31;;;;;;;;;;;;;;;7.13;80.21;96745.91;5074465;28;19970;-68
2023/01/11 11:27:01;;;;;;;;;;;;;;;7.05;80.68;96744.09;5073363;28;19970;-68
2023/01/11 11:29:29;;;;;;;;;;;;;;;7.01;80.64;96738.53;5075160;28;20771;-69
2023/01/11 11:31:55;;;;;;;;;;;;;;;6.95;81.71;96739.09;5044763;28;20066;-69
2023/01/11 11:34:21;;;;;;;;;;;;;;;6.93;82.73;96744.88;5038687;28;19917;-68
2023/01/11 11:36:48;;;;;;;;;;;;;;;6.88;84.46;96740.47;5043754;28;19943;-68
2023/01/11 11:39:21;;;;;;;;;;;;;;;6.92;84.50;96740.59;5021603;28;19917;-69
2023/01/11 11:41:51;;;;;;;;;;;;;;;6.83;85.88;96739.91;5043815;28;20395;-70
2023/01/11 11:44:20;;;;;;;;;;;;;;;6.70;87.59;96731.75;5038548;28;19921;-69
2023/01/11 11:46:56;;;;;;;;;;;;;;;6.70;89.94;96728.22;5043979;28;20011;-69
2023/01/11 11:49:22;;;;;;;;;;;;;;;6.66;91.85;96730.03;5021624;28;20715;-70
2023/01/11 11:51:48;;;;;;;;;;;;;;;6.45;96.82;96727.44;5043177;28;19927;-69
2023/01/11 11:54:33;;;;;;;;;;;;;;;6.40;98.74;96723.00;5022252;28;19916;-69
2023/01/11 11:57:11;;;;;;;;;;;;;;;6.41;98.11;96712.91;5042501;28;19917;-69
2023/01/11 11:59:36;;;;;;;;;;;;;;;6.51;97.60;96709.75;5025102;28;19974;-70
2023/01/11 12:02:04;;;;;;;;;;;;;;;6.45;98.62;96703.72;5041752;28;19963;-65
2023/01/11 12:04:45;;;;;;;;;;;;;;;6.50;98.94;96708.16;5043602;28;19928;-70
2023/01/11 12:07:14;;;;;;;;;;;;;;;6.47;100.00;96708.84;5039616;28;19917;-70
2023/01/11 12:09:43;;;;;;;;;;;;;;;6.47;100.00;96700.69;5043410;28;19960;-68
2023/01/11 12:12:13;;;;;;;;;;;;;;;6.54;100.00;96698.19;5023370;28;19921;-68
2023/01/11 12:14:38;;;;;;;;;;;;;;;6.61;100.00;96700.31;5054183;28;19916;-68
2023/01/11 12:17:23;;;;;;;;;;;;;;;6.60;100.00;96694.09;5026359;28;19962;-66
2023/01/11 12:19:48;;;;;;;;;;;;;;;6.47;100.00;96687.06;5043862;28;19921;-69
2023/01/11 12:22:14;;;;;;;;;;;;;;;6.55;100.00;96690.81;5040015;28;19918;-68
2023/01/11 12:24:39;;;;;;;;;;;;;;;6.59;100.00;96680.81;5044496;28;20673;-69
2023/01/11 12:27:17;;;;;;;;;;;;;;;6.67;100.00;96686.16;5038110;28;20285;-66
2023/01/11 12:29:52;;;;;;;;;;;;;;;6.58;100.00;96693.63;5043240;28;19916;-67
2023/01/11 12:32:20;;;;;;;;;;;;;;;5.98;100.00;96681.56;5039345;28;19917;-70
2023/01/11 12:34:57;;;;;;;;;;;;;;;5.83;100.00;96691.13;5043791;28;19917;-68
2023/01/11 12:37:24;;;;;;;;;;;;;;;5.65;100.00;96685.84;5037796;28;19925;-69
2023/01/11 12:39:57;;;;;;;;;;;;;;;5.76;100.00;96686.22;5024694;28;19963;-69
2023/01/11 12:42:29;;;;;;;;;;;;;;;5.68;100.00;96687.91;5037743;28;20355;-70
2023/01/11 12:44:57;;;;;;;;;;;;;;;5.75;100.00;96690.09;5042778;28;20031;-70
2023/01/11 12:47:41;;;;;;;;;;;;;;;5.83;100.00;96685.69;5038980;28;19925;-69
2023/01/11 12:50:07;;;;;;;;;;;;;;;5.99;100.00;96681.22;5038092;28;20293;-70
2023/01/11 12:52:41;;;;;;;;;;;;;;;6.13;100.00;96683.63;5024771;28;19921;-70
2023/01/11 12:55:09;;;;;;;;;;;;;;;6.14;100.00;96677.06;5037616;28;19944;-67
2023/01/11 12:57:52;;;;;;;;;;;;;;;6.17;100.00;96683.75;5025000;28;19986;-68
2023/01/11 13:00:26;;;;;;;;;;;;;;;6.18;100.00;96672.53;5034582;28;19949;-67
2023/01/11 13:03:04;;;;;;;;;;;;;;;6.23;100.00;96682.38;5027254;28;19923;-69
2023/01/11 13:05:48;;;;;;;;;;;;;;;6.31;100.00;96686.94;5040988;28;20063;-67
2023/01/11 13:08:20;;;;;;;;;;;;;;;6.34;100.00;96680.84;5036703;28;19921;-70
2023/01/11 13:10:48;;;;;;;;;;;;;;;6.42;100.00;96679.91;5043391;28;19933;-68
2023/01/11 13:13:18;;;;;;;;;;;;;;;6.51;100.00;96683.31;5039590;28;19921;-66
2023/01/11 13:15:47;;;;;;;;;;;;;;;6.44;100.00;96682.28;5067108;28;20007;-69
2023/01/11 13:18:25;;;;;;;;;;;;;;;6.41;100.00;96678.34;5068132;28;19930;-67
2023/01/11 13:20:50;;;;;;;;;;;;;;;6.40;100.00;96684.13;5054923;28;20102;-71
2023/01/11 13:23:20;;;;;;;;;;;;;;;6.39;100.00;96677.06;5063395;28;19927;-68
2023/01/11 13:25:48;;;;;;;;;;;;;;;6.43;100.00;96678.00;5063608;28;20087;-67
2023/01/11 13:28:32;;;;;;;;;;;;;;;6.53;100.00;96682.97;5057276;28;20349;-69